Abbotsford, Wisconsin
Current Conditions -  °F | °C
As of 8:15 AM on Friday 28 Nov 2014 (Local Time) from KMDZ Reporting Station
Overcast Overcast  
Wind Chill: -4°   Ceiling: 6000
Heat Index:   Visibility: 7mi
Dew Point:   Wind: 8mph
Humidity: 84%   Direction: 130°SE
Pressure: 30.06"   Gusts: NA
Location:  44.95°N, 90.32°W
Report Text: KMDZ 281415Z AUTO 13007KT 7SM OVC060 M13/M15 A3006 RMK AO2 T11301152
Loading
Personal Weather Stations






























Interactive Weather Map New forecast layout! Learn more

10-Day Weather Forecast

Advertisements
Track Severe Weather on mobile